Time;durP1;ratioP1;P1;durP2;ratioP2;P2;SDS_P1;SDS_P2;PMS_P1;PMS_P2;Temp;Humidity;BMP_temperature;BMP_pressure;BME280_temperature;BME280_humidity;BME280_pressure;Samples;Min_cycle;Max_cycle;Signal;HPM_P1;HPM_P2
2022/01/11 00:01:42;;;;;;;43.90;22.40;;;4.60;99.90;;;;;;4974399;28;20491;-66
2022/01/11 00:04:12;;;;;;;48.57;21.93;;;4.50;99.90;;;;;;4974458;28;20583;-66
2022/01/11 00:06:44;;;;;;;52.63;24.23;;;4.50;99.90;;;;;;4974192;28;20487;-66
2022/01/11 00:09:21;;;;;;;56.20;23.80;;;4.50;99.90;;;;;;4974231;28;20505;-66
2022/01/11 00:11:50;;;;;;;51.40;23.90;;;4.50;99.90;;;;;;4974068;28;21005;-66
2022/01/11 00:14:18;;;;;;;52.40;21.97;;;4.50;99.90;;;;;;4974334;28;20493;-66
2022/01/11 00:16:48;;;;;;;63.93;23.93;;;4.60;99.90;;;;;;4974125;28;20540;-66
2022/01/11 00:19:16;;;;;;;59.63;24.03;;;4.70;99.90;;;;;;4974290;28;20487;-67
2022/01/11 00:21:47;;;;;;;60.60;23.90;;;4.70;99.90;;;;;;4973706;28;20498;-66
2022/01/11 00:27:02;;;;;;;58.93;25.83;;;4.70;99.90;;;;;;4973817;28;20470;-67
2022/01/11 00:29:33;;;;;;;63.57;26.13;;;4.80;99.90;;;;;;4972430;28;20977;-67
2022/01/11 00:32:13;;;;;;;59.20;25.97;;;4.90;99.90;;;;;;4972549;28;20536;-67
2022/01/11 00:34:48;;;;;;;59.37;25.53;;;4.90;99.90;;;;;;4972112;28;20535;-67
2022/01/11 00:37:17;;;;;;;56.13;25.50;;;4.70;99.90;;;;;;4973891;28;20288;-66
2022/01/11 00:39:45;;;;;;;64.53;27.60;;;4.70;99.90;;;;;;4973692;28;20847;-66
2022/01/11 00:42:14;;;;;;;56.63;23.83;;;4.70;99.90;;;;;;4973479;28;20480;-66
2022/01/11 00:44:42;;;;;;;64.77;26.23;;;4.70;99.90;;;;;;4972208;28;20493;-66
2022/01/11 00:47:12;;;;;;;53.43;22.00;;;4.80;99.90;;;;;;4973688;28;20533;-66
2022/01/11 00:49:41;;;;;;;64.07;27.60;;;4.80;99.90;;;;;;4973649;28;20473;-66
2022/01/11 00:52:09;;;;;;;58.57;24.80;;;4.70;99.90;;;;;;4972189;28;20894;-66
2022/01/11 00:54:38;;;;;;;56.70;25.70;;;4.70;99.90;;;;;;4973182;28;20246;-66
2022/01/11 00:57:06;;;;;;;58.97;25.73;;;4.70;99.90;;;;;;4973170;28;20517;-66
2022/01/11 00:59:34;;;;;;;56.97;25.23;;;4.60;99.90;;;;;;4973382;28;20484;-66
2022/01/11 01:02:03;;;;;;;47.97;24.47;;;4.60;99.90;;;;;;4973464;28;20990;-66
2022/01/11 01:04:33;;;;;;;50.67;24.43;;;4.60;99.90;;;;;;4973161;28;20480;-66
2022/01/11 01:07:01;;;;;;;53.77;22.13;;;4.60;99.90;;;;;;4971818;28;20466;-66
2022/01/11 01:09:40;;;;;;;52.23;25.00;;;4.60;99.90;;;;;;4971563;28;20539;-66
2022/01/11 01:12:09;;;;;;;53.33;24.17;;;4.80;99.90;;;;;;4972875;28;20477;-66
2022/01/11 01:14:38;;;;;;;51.03;21.93;;;4.80;99.90;;;;;;4943435;28;21020;-66
2022/01/11 01:17:08;;;;;;;64.22;26.35;;;4.90;99.90;;;;;;971039;28;10002084;-66
2022/01/11 01:19:38;;;;;;;66.80;25.77;;;4.80;99.90;;;;;;4973157;28;20269;-66
2022/01/11 01:22:06;;;;;;;54.03;26.37;;;4.90;99.90;;;;;;4973040;28;20533;-66
2022/01/11 01:24:34;;;;;;;52.43;24.77;;;4.70;99.90;;;;;;4971575;28;20507;-66
2022/01/11 01:27:03;;;;;;;52.97;25.83;;;4.60;99.90;;;;;;4971349;28;20545;-66
2022/01/11 01:29:31;;;;;;;57.90;24.20;;;4.50;99.90;;;;;;4972732;28;20982;-66
2022/01/11 01:32:00;;;;;;;45.60;20.33;;;4.60;99.90;;;;;;4972830;28;20773;-66
2022/01/11 01:34:29;;;;;;;51.17;24.27;;;4.80;99.90;;;;;;4972807;28;20477;-66
2022/01/11 01:36:58;;;;;;;53.23;25.97;;;4.80;99.90;;;;;;4972792;28;20524;-66
2022/01/11 01:39:27;;;;;;;53.80;22.20;;;4.90;99.90;;;;;;4971180;28;21005;-66
2022/01/11 01:41:55;;;;;;;49.10;23.03;;;5.00;99.90;;;;;;4972607;28;20482;-66
2022/01/11 01:44:25;;;;;;;48.80;23.10;;;4.80;99.90;;;;;;4972731;28;20478;-66
2022/01/11 01:46:53;;;;;;;46.43;20.73;;;4.70;99.90;;;;;;4972555;28;20810;-67
2022/01/11 01:49:23;;;;;;;47.63;20.77;;;4.80;99.90;;;;;;4972640;28;20240;-67
2022/01/11 01:51:52;;;;;;;61.90;23.37;;;4.70;99.90;;;;;;4972540;28;20516;-66
2022/01/11 01:54:23;;;;;;;50.33;22.20;;;4.60;99.90;;;;;;4971231;28;20238;-66
2022/01/11 01:56:52;;;;;;;49.23;23.63;;;4.70;99.90;;;;;;4972131;28;20840;-66
2022/01/11 01:59:20;;;;;;;45.80;23.33;;;4.60;99.90;;;;;;4971124;28;20324;-66
2022/01/11 02:01:49;;;;;;;48.40;23.87;;;4.50;99.90;;;;;;4968364;28;20466;-66
2022/01/11 02:04:19;;;;;;;45.93;23.73;;;4.50;99.90;;;;;;4973107;28;20500;-67
2022/01/11 02:06:48;;;;;;;50.80;25.80;;;4.40;99.90;;;;;;4960266;28;20449;-66
2022/01/11 02:09:17;;;;;;;49.00;25.07;;;4.40;99.90;;;;;;4976080;28;20542;-66
2022/01/11 02:11:47;;;;;;;55.90;25.03;;;4.40;99.90;;;;;;4972895;28;20513;-66
2022/01/11 02:14:18;;;;;;;51.83;24.43;;;4.40;99.90;;;;;;4973009;28;20512;-66
2022/01/11 02:16:47;;;;;;;48.37;24.30;;;4.40;99.90;;;;;;4972771;28;20470;-66
2022/01/11 02:19:16;;;;;;;41.03;23.93;;;4.40;99.90;;;;;;4972980;28;20480;-67
2022/01/11 02:21:47;;;;;;;48.27;25.27;;;4.30;99.90;;;;;;4972906;28;20533;-67
2022/01/11 02:24:16;;;;;;;43.97;23.57;;;4.40;99.90;;;;;;4972964;28;20541;-67
2022/01/11 02:26:44;;;;;;;42.83;23.37;;;4.30;99.90;;;;;;4972618;28;20784;-67
2022/01/11 02:29:13;;;;;;;48.57;24.83;;;4.40;99.90;;;;;;4972785;28;20469;-67
2022/01/11 02:31:43;;;;;;;47.93;24.53;;;4.30;99.90;;;;;;4972764;28;20942;-67
2022/01/11 02:34:12;;;;;;;44.47;24.03;;;4.30;99.90;;;;;;4972779;28;20442;-66
2022/01/11 02:37:00;;;;;;;43.73;23.57;;;4.30;99.90;;;;;;4973764;28;20985;-66
2022/01/11 02:39:47;;;;;;;39.13;23.83;;;4.30;99.90;;;;;;4972443;28;20985;-66
2022/01/11 02:42:26;;;;;;;42.07;23.23;;;4.30;99.90;;;;;;4972647;28;20450;-66
2022/01/11 02:44:54;;;;;;;41.37;22.13;;;4.30;99.90;;;;;;4972688;28;20965;-66
2022/01/11 02:47:23;;;;;;;41.63;23.27;;;4.20;99.90;;;;;;4972490;28;20501;-66
2022/01/11 02:49:54;;;;;;;41.73;23.67;;;4.10;99.90;;;;;;4972660;28;20461;-66
2022/01/11 02:52:27;;;;;;;43.40;23.37;;;4.30;99.90;;;;;;4972548;28;20954;-66
2022/01/11 02:55:00;;;;;;;39.67;22.20;;;4.20;99.90;;;;;;4972645;28;20507;-66
2022/01/11 02:57:28;;;;;;;38.93;21.27;;;4.20;99.90;;;;;;4972318;28;20453;-66
2022/01/11 03:02:37;;;;;;;37.60;20.67;;;4.20;99.90;;;;;;4980553;28;20434;-66
2022/01/11 03:05:06;;;;;;;44.93;22.90;;;4.10;99.90;;;;;;4972222;28;20490;-66
2022/01/11 03:07:36;;;;;;;38.37;22.37;;;4.10;99.90;;;;;;4973529;28;20452;-66
2022/01/11 03:10:15;;;;;;;38.57;22.83;;;4.00;99.90;;;;;;4972340;28;20479;-66
2022/01/11 03:13:05;;;;;;;36.35;18.86;;;4.00;99.90;;;;;;3472371;28;10023195;-66
2022/01/11 03:15:34;;;;;;;40.58;21.67;;;4.00;99.90;;;;;;2570957;28;10001906;-66
2022/01/11 03:18:07;;;;;;;42.23;24.03;;;4.20;99.90;;;;;;4972350;28;20214;-66
2022/01/11 03:20:40;;;;;;;47.70;24.47;;;4.30;99.90;;;;;;4976254;28;20472;-66
2022/01/11 03:23:14;;;;;;;43.10;23.40;;;4.20;99.90;;;;;;4976014;28;20535;-66
2022/01/11 03:25:43;;;;;;;47.33;25.57;;;4.30;99.90;;;;;;4977558;28;20447;-66
2022/01/11 03:28:12;;;;;;;47.53;25.07;;;4.20;99.90;;;;;;4976144;28;20457;-66
2022/01/11 03:30:40;;;;;;;44.27;24.97;;;4.20;99.90;;;;;;4976003;28;20451;-66
2022/01/11 03:33:09;;;;;;;50.83;27.50;;;4.10;99.90;;;;;;4977357;28;20780;-66
2022/01/11 03:35:39;;;;;;;49.77;25.60;;;4.10;99.90;;;;;;4975996;28;20584;-66
2022/01/11 03:38:09;;;;;;;51.17;26.77;;;4.20;99.90;;;;;;4977230;28;20440;-66
2022/01/11 03:40:40;;;;;;;54.70;28.00;;;4.20;99.90;;;;;;4977042;28;20868;-66
2022/01/11 03:43:10;;;;;;;47.17;24.63;;;4.10;99.90;;;;;;4975659;28;20461;-67
2022/01/11 03:45:39;;;;;;;61.17;29.33;;;4.20;99.90;;;;;;4975736;28;20560;-66
2022/01/11 03:48:13;;;;;;;64.10;31.33;;;4.20;99.90;;;;;;4975830;28;20441;-66
2022/01/11 03:50:43;;;;;;;64.60;29.67;;;4.10;99.90;;;;;;4975646;28;20826;-66
2022/01/11 03:53:15;;;;;;;64.80;31.33;;;4.10;99.90;;;;;;4975365;28;20450;-66
2022/01/11 03:58:38;;;;;;;64.10;31.40;;;4.00;99.90;;;;;;4975300;28;20471;-66
2022/01/11 04:01:07;;;;;;;59.50;29.77;;;3.90;99.90;;;;;;4975348;28;20511;-66
2022/01/11 04:03:37;;;;;;;71.90;34.23;;;4.10;99.90;;;;;;4975268;28;20449;-66
2022/01/11 04:06:06;;;;;;;63.70;32.73;;;4.00;99.90;;;;;;4975637;28;20486;-66
2022/01/11 04:08:34;;;;;;;69.57;35.47;;;4.00;99.90;;;;;;4974916;28;20484;-66
2022/01/11 04:11:05;;;;;;;66.77;32.27;;;4.00;99.90;;;;;;4976717;28;20803;-66
2022/01/11 04:13:33;;;;;;;68.77;34.13;;;4.00;99.90;;;;;;4976413;28;20433;-66
2022/01/11 04:16:02;;;;;;;67.97;33.27;;;4.10;99.90;;;;;;4975160;28;20450;-66
2022/01/11 04:18:31;;;;;;;60.33;31.20;;;4.00;99.90;;;;;;4974908;28;20450;-66
2022/01/11 04:20:59;;;;;;;76.83;34.93;;;4.00;99.90;;;;;;4974966;28;20489;-66
2022/01/11 04:23:28;;;;;;;63.17;32.57;;;4.00;99.90;;;;;;4974893;28;20493;-66
2022/01/11 04:25:56;;;;;;;59.50;31.77;;;3.90;99.90;;;;;;4976021;28;20431;-66
2022/01/11 04:28:26;;;;;;;61.27;32.70;;;3.90;99.90;;;;;;4974816;28;20454;-66
2022/01/11 04:30:57;;;;;;;52.33;26.13;;;3.80;99.90;;;;;;4973896;28;20452;-66
2022/01/11 04:33:26;;;;;;;53.30;27.20;;;3.90;99.90;;;;;;4974779;28;20811;-66
2022/01/11 04:35:55;;;;;;;60.30;31.10;;;3.90;99.90;;;;;;4974730;28;20450;-66
2022/01/11 04:38:27;;;;;;;58.17;26.93;;;4.10;99.90;;;;;;4974545;28;20450;-66
2022/01/11 04:40:56;;;;;;;64.27;33.37;;;4.30;99.90;;;;;;4974729;28;20974;-66
2022/01/11 04:43:28;;;;;;;64.13;33.10;;;4.20;99.90;;;;;;4974630;28;20650;-66
2022/01/11 04:45:56;;;;;;;62.73;32.07;;;4.10;99.90;;;;;;4974604;28;20445;-66
2022/01/11 04:48:25;;;;;;;64.47;32.77;;;4.10;99.90;;;;;;4974448;28;20799;-66
2022/01/11 04:50:53;;;;;;;66.73;31.67;;;4.00;99.90;;;;;;4974474;28;20440;-66
2022/01/11 04:53:21;;;;;;;60.63;31.17;;;3.90;99.90;;;;;;4975417;28;20437;-66
2022/01/11 04:55:50;;;;;;;63.07;30.93;;;3.90;99.90;;;;;;4974220;28;20799;-66
2022/01/11 04:58:19;;;;;;;71.60;33.73;;;3.80;99.90;;;;;;4974173;28;20817;-66
2022/01/11 05:00:48;;;;;;;59.80;33.67;;;3.70;99.90;;;;;;4974290;28;20511;-66
2022/01/11 05:03:18;;;;;;;58.93;30.67;;;3.70;99.90;;;;;;4974273;28;21002;-66
2022/01/11 05:05:50;;;;;;;56.47;31.00;;;3.80;99.90;;;;;;4974276;28;20817;-66
2022/01/11 05:08:18;;;;;;;81.20;33.17;;;3.80;99.90;;;;;;4973716;28;20547;-66
2022/01/11 05:10:48;;;;;;;60.93;34.13;;;3.80;99.90;;;;;;4974148;28;20539;-66
2022/01/11 05:13:19;;;;;;;62.93;33.53;;;3.80;99.90;;;;;;4974004;28;20448;-66
2022/01/11 05:16:09;;;;;;;54.71;28.77;;;3.80;99.90;;;;;;1962908;28;10022885;-66
2022/01/11 05:18:38;;;;;;;68.57;31.33;;;3.70;99.90;;;;;;3944583;28;10001453;-66
2022/01/11 05:21:06;;;;;;;63.60;32.67;;;3.70;99.90;;;;;;4971744;28;21063;-67
2022/01/11 05:23:34;;;;;;;64.00;33.33;;;3.80;99.90;;;;;;4972092;28;20440;-66
2022/01/11 05:26:03;;;;;;;75.23;34.07;;;3.80;99.90;;;;;;4972193;28;20540;-66
2022/01/11 05:28:33;;;;;;;62.67;33.17;;;3.90;99.90;;;;;;4972181;28;20452;-66
2022/01/11 05:31:02;;;;;;;62.73;33.23;;;3.80;99.90;;;;;;4972571;28;20524;-66
2022/01/11 05:33:32;;;;;;;65.63;32.40;;;3.80;99.90;;;;;;4971731;28;20442;-66
2022/01/11 05:36:00;;;;;;;69.90;31.27;;;3.70;99.90;;;;;;4972366;28;20477;-66
2022/01/11 05:38:28;;;;;;;69.03;31.30;;;3.80;99.90;;;;;;4970478;28;20473;-67
2022/01/11 05:40:57;;;;;;;80.67;35.93;;;3.90;99.90;;;;;;4968364;28;20477;-66
2022/01/11 05:43:25;;;;;;;79.53;36.37;;;3.80;99.90;;;;;;4971834;28;20481;-66
2022/01/11 05:45:53;;;;;;;77.07;36.97;;;3.90;99.90;;;;;;4967967;28;20483;-66
2022/01/11 05:48:23;;;;;;;79.67;35.80;;;3.90;99.90;;;;;;4966614;28;20485;-67
2022/01/11 05:50:53;;;;;;;71.10;34.27;;;3.80;99.90;;;;;;4971219;28;20533;-66
2022/01/11 05:53:22;;;;;;;80.37;34.27;;;3.90;99.90;;;;;;4970644;28;20555;-66
2022/01/11 05:55:52;;;;;;;85.37;35.73;;;4.10;99.90;;;;;;4970454;28;20548;-66
2022/01/11 05:58:20;;;;;;;73.80;33.50;;;4.10;99.90;;;;;;4970724;28;20476;-66
2022/01/11 06:00:48;;;;;;;82.37;35.70;;;3.90;99.90;;;;;;4969943;28;20472;-67
2022/01/11 06:03:18;;;;;;;73.93;35.60;;;3.80;99.90;;;;;;4971121;28;20969;-67
2022/01/11 06:05:49;;;;;;;71.07;35.83;;;3.70;99.90;;;;;;4970261;28;20523;-66
2022/01/11 06:08:20;;;;;;;66.80;33.67;;;3.70;99.90;;;;;;4981751;28;20896;-66
2022/01/11 06:10:49;;;;;;;55.63;27.00;;;3.70;99.90;;;;;;4966272;28;20473;-66
2022/01/11 06:13:21;;;;;;;73.03;34.97;;;3.90;99.90;;;;;;4978026;28;20480;-66
2022/01/11 06:15:54;;;;;;;70.10;33.13;;;3.70;99.90;;;;;;4986840;28;20888;-66
2022/01/11 06:18:22;;;;;;;66.70;33.97;;;3.80;99.90;;;;;;4975205;28;20478;-67
2022/01/11 06:21:06;;;;;;;69.33;32.30;;;3.80;99.90;;;;;;4970845;28;20541;-67
2022/01/11 06:23:35;;;;;;;66.63;31.20;;;3.70;99.90;;;;;;4970223;28;20992;-66
2022/01/11 06:26:04;;;;;;;70.37;34.50;;;3.80;99.90;;;;;;4970506;28;20510;-66
2022/01/11 06:28:32;;;;;;;74.30;33.93;;;3.70;99.90;;;;;;4970077;28;20846;-66
2022/01/11 06:31:00;;;;;;;88.13;31.90;;;3.80;99.90;;;;;;4970170;28;20492;-66
2022/01/11 06:33:29;;;;;;;72.23;33.27;;;3.60;99.90;;;;;;4970214;28;20482;-66
2022/01/11 06:35:57;;;;;;;69.07;32.67;;;3.50;99.90;;;;;;4971911;28;20476;-66
2022/01/11 06:38:25;;;;;;;60.83;31.13;;;3.50;99.90;;;;;;4970176;28;20507;-66
2022/01/11 06:40:55;;;;;;;59.73;30.70;;;3.50;99.90;;;;;;4970521;28;20477;-66
2022/01/11 06:43:26;;;;;;;62.03;30.87;;;3.50;99.90;;;;;;4970053;28;20558;-66
2022/01/11 06:45:55;;;;;;;68.83;32.23;;;3.60;99.90;;;;;;4970465;28;20477;-66
2022/01/11 06:48:24;;;;;;;64.27;30.90;;;3.50;99.90;;;;;;4970199;28;20559;-66
2022/01/11 06:50:53;;;;;;;55.33;29.30;;;3.50;99.90;;;;;;4970495;28;20467;-66
2022/01/11 06:53:24;;;;;;;61.47;30.27;;;3.50;99.90;;;;;;4970122;28;21031;-66
2022/01/11 06:55:54;;;;;;;60.13;30.90;;;3.50;99.90;;;;;;4971155;28;20536;-66
2022/01/11 06:58:25;;;;;;;68.27;28.60;;;3.50;99.90;;;;;;4963018;28;20489;-67
2022/01/11 07:00:55;;;;;;;67.43;29.87;;;3.50;99.90;;;;;;4955009;28;20472;-67
2022/01/11 07:03:26;;;;;;;71.70;30.87;;;3.50;99.90;;;;;;4966411;28;20534;-67
2022/01/11 07:06:18;;;;;;;58.13;28.50;;;3.40;99.90;;;;;;4969997;28;20844;-67
2022/01/11 07:08:46;;;;;;;57.43;27.47;;;3.40;99.90;;;;;;4973634;28;20509;-67
2022/01/11 07:11:21;;;;;;;61.17;28.10;;;3.40;99.90;;;;;;4974138;28;20533;-67
2022/01/11 07:13:53;;;;;;;58.17;26.95;;;3.40;99.90;;;;;;973600;28;10022983;-66
2022/01/11 07:16:21;;;;;;;50.60;27.93;;;3.40;99.90;;;;;;4960624;28;20443;-66
2022/01/11 07:18:51;;;;;;;51.50;25.47;;;3.40;99.90;;;;;;4962371;28;20489;-66
2022/01/11 07:21:19;;;;;;;62.93;28.13;;;3.50;99.90;;;;;;4971841;28;20478;-67
2022/01/11 07:23:48;;;;;;;58.00;27.77;;;3.40;99.90;;;;;;4963441;28;20550;-66
2022/01/11 07:26:16;;;;;;;57.97;28.37;;;3.40;99.90;;;;;;4958407;28;20481;-66
2022/01/11 07:28:46;;;;;;;74.67;29.40;;;3.40;99.90;;;;;;4962152;28;20843;-66
2022/01/11 07:31:19;;;;;;;61.23;29.63;;;3.30;99.90;;;;;;4954560;28;20504;-66
2022/01/11 07:33:52;;;;;;;55.33;27.50;;;3.30;99.90;;;;;;4960990;28;20484;-66
2022/01/11 07:36:22;;;;;;;66.40;29.97;;;3.40;99.90;;;;;;4954045;28;20991;-66
2022/01/11 07:38:57;;;;;;;65.03;28.77;;;3.30;99.90;;;;;;4967634;28;20573;-66
2022/01/11 07:41:31;;;;;;;62.70;28.30;;;3.30;99.90;;;;;;4987337;28;21007;-66
2022/01/11 07:44:12;;;;;;;71.63;26.80;;;3.30;99.90;;;;;;4954682;28;20829;-66
2022/01/11 07:46:44;;;;;;;64.60;28.63;;;3.20;99.90;;;;;;4936081;29;20481;-66
2022/01/11 07:49:19;;;;;;;63.60;26.40;;;3.20;99.90;;;;;;4954888;28;20502;-66
2022/01/11 07:51:48;;;;;;;53.40;26.67;;;3.20;99.90;;;;;;5003763;28;20484;-67
2022/01/11 07:54:16;;;;;;;54.00;28.03;;;3.30;99.90;;;;;;4971192;28;20545;-66
2022/01/11 07:56:47;;;;;;;62.03;29.40;;;3.40;99.90;;;;;;4953885;28;20475;-66
2022/01/11 07:59:17;;;;;;;55.97;29.47;;;3.30;99.90;;;;;;4969728;28;20538;-66
2022/01/11 08:01:48;;;;;;;60.93;30.70;;;3.30;99.90;;;;;;4972949;28;20852;-66
2022/01/11 08:04:19;;;;;;;57.90;29.17;;;3.30;99.90;;;;;;4973238;28;20552;-66
2022/01/11 08:06:52;;;;;;;55.87;29.23;;;3.30;99.90;;;;;;4953263;28;20490;-67
2022/01/11 08:09:50;;;;;;;56.43;29.13;;;3.30;99.90;;;;;;4954126;28;20482;-66
2022/01/11 08:12:19;;;;;;;57.63;27.27;;;3.20;99.90;;;;;;4967235;28;20529;-66
2022/01/11 08:14:48;;;;;;;61.00;28.20;;;3.20;99.90;;;;;;4955082;28;20490;-66
2022/01/11 08:17:18;;;;;;;62.27;29.07;;;3.20;99.90;;;;;;4953704;28;20899;-66
2022/01/11 08:19:46;;;;;;;58.13;27.73;;;3.20;99.90;;;;;;4969163;28;20474;-66
2022/01/11 08:22:17;;;;;;;60.80;26.67;;;3.20;99.90;;;;;;4972894;28;20480;-66
2022/01/11 08:24:53;;;;;;;62.67;26.97;;;3.20;99.90;;;;;;4972554;28;20489;-66
2022/01/11 08:27:22;;;;;;;63.47;27.47;;;3.20;99.90;;;;;;4972725;28;20482;-66
2022/01/11 08:29:53;;;;;;;63.67;27.07;;;3.20;99.90;;;;;;4972664;28;20985;-66
2022/01/11 08:32:22;;;;;;;59.80;27.40;;;3.30;99.90;;;;;;4979289;28;20496;-66
2022/01/11 08:34:51;;;;;;;68.47;28.17;;;3.30;99.90;;;;;;4953361;28;20494;-66
2022/01/11 08:37:19;;;;;;;61.93;26.23;;;3.20;99.90;;;;;;4959844;28;20474;-66
2022/01/11 08:39:49;;;;;;;63.53;27.17;;;3.20;99.90;;;;;;4972768;28;20492;-66
2022/01/11 08:42:17;;;;;;;69.47;27.60;;;3.30;99.90;;;;;;4972454;28;20472;-66
2022/01/11 08:44:48;;;;;;;72.23;28.30;;;3.30;99.90;;;;;;4988462;28;20491;-66
2022/01/11 08:47:20;;;;;;;67.63;26.97;;;3.30;99.90;;;;;;4972224;28;20530;-66
2022/01/11 08:49:50;;;;;;;72.57;26.40;;;3.30;99.90;;;;;;4972420;28;20836;-66
2022/01/11 08:52:19;;;;;;;68.63;27.23;;;3.30;99.90;;;;;;4972416;28;20959;-66
2022/01/11 08:54:48;;;;;;;71.30;27.07;;;3.30;99.90;;;;;;4972416;28;20488;-66
2022/01/11 08:57:19;;;;;;;77.57;27.57;;;3.30;99.90;;;;;;4972352;28;20500;-67
2022/01/11 08:59:49;;;;;;;79.20;26.57;;;3.40;99.90;;;;;;4972115;28;20479;-66
2022/01/11 09:02:20;;;;;;;82.87;28.30;;;3.50;99.90;;;;;;4972121;28;20544;-66
2022/01/11 09:04:52;;;;;;;88.07;28.87;;;3.50;99.90;;;;;;4972086;28;21004;-66
2022/01/11 09:07:25;;;;;;;75.13;27.93;;;3.40;99.90;;;;;;4971559;28;20511;-66
2022/01/11 09:09:57;;;;;;;82.37;27.20;;;3.50;99.90;;;;;;4971814;28;20501;-66
2022/01/11 09:12:26;;;;;;;72.90;26.80;;;3.50;99.90;;;;;;4945351;28;20476;-66
2022/01/11 09:14:54;;;;;;;76.83;27.57;;;3.50;99.90;;;;;;967484;28;10002443;-66
2022/01/11 09:17:23;;;;;;;71.03;27.73;;;3.50;99.90;;;;;;4983594;28;20252;-66
2022/01/11 09:19:54;;;;;;;77.50;29.83;;;3.60;99.90;;;;;;4952746;28;20478;-66
2022/01/11 09:22:24;;;;;;;77.33;29.40;;;3.50;99.90;;;;;;4984356;28;20551;-66
2022/01/11 09:24:55;;;;;;;79.47;30.53;;;3.60;99.90;;;;;;4985107;28;20469;-66
2022/01/11 09:27:27;;;;;;;67.87;28.33;;;3.70;99.90;;;;;;4969006;28;20477;-66
2022/01/11 09:30:06;;;;;;;76.60;30.97;;;3.60;99.90;;;;;;4960931;28;20478;-66
2022/01/11 09:32:35;;;;;;;74.67;29.83;;;3.70;99.90;;;;;;4951922;28;20467;-66
2022/01/11 09:35:06;;;;;;;86.23;30.07;;;3.70;99.90;;;;;;4951902;28;20502;-66
2022/01/11 09:37:36;;;;;;;70.73;28.87;;;3.80;99.90;;;;;;4954409;28;20475;-66
2022/01/11 09:40:06;;;;;;;74.77;31.10;;;3.80;99.90;;;;;;4953359;28;20510;-66
2022/01/11 09:42:36;;;;;;;68.17;29.23;;;3.80;99.90;;;;;;4951860;28;20467;-66
2022/01/11 09:45:09;;;;;;;66.80;28.17;;;3.80;99.90;;;;;;4951875;28;20488;-66
2022/01/11 09:47:43;;;;;;;63.47;26.80;;;3.80;99.90;;;;;;4951599;28;20474;-66
2022/01/11 09:50:18;;;;;;;60.73;26.83;;;3.90;99.90;;;;;;4951724;28;20479;-66
2022/01/11 09:53:07;;;;;;;71.83;29.00;;;3.90;99.90;;;;;;4945972;28;20500;-66
2022/01/11 09:55:39;;;;;;;58.37;26.10;;;3.80;99.90;;;;;;4951930;28;20975;-66
2022/01/11 09:58:08;;;;;;;63.77;27.10;;;3.90;99.90;;;;;;4951646;28;20484;-66
2022/01/11 10:00:53;;;;;;;63.23;26.20;;;3.90;99.90;;;;;;4972668;28;20571;-66
2022/01/11 10:03:56;;;;;;;67.60;27.83;;;3.90;99.90;;;;;;4955135;28;20540;-67
2022/01/11 10:06:33;;;;;;;62.00;27.47;;;3.90;99.90;;;;;;4968055;28;20470;-67
2022/01/11 10:09:13;;;;;;;61.23;25.93;;;4.00;99.90;;;;;;4970721;28;20543;-67
2022/01/11 10:11:45;;;;;;;61.37;27.20;;;4.00;99.90;;;;;;4970622;28;20877;-67
2022/01/11 10:14:23;;;;;;;56.70;24.90;;;4.10;99.90;;;;;;4972239;28;20486;-67
2022/01/11 10:17:04;;;;;;;55.23;24.30;;;4.10;99.90;;;;;;4971713;28;21072;-66
2022/01/11 10:19:34;;;;;;;50.07;23.83;;;4.10;99.90;;;;;;4973104;28;20493;-66
2022/01/11 10:22:05;;;;;;;56.87;24.93;;;4.10;99.90;;;;;;4972794;28;20481;-66
2022/01/11 10:24:37;;;;;;;49.23;23.53;;;4.10;99.90;;;;;;4973115;28;20868;-66
2022/01/11 10:27:18;;;;;;;52.60;23.00;;;4.20;99.90;;;;;;4972725;28;20790;-66
2022/01/11 10:29:49;;;;;;;55.40;23.57;;;4.20;99.90;;;;;;4971973;28;20502;-66
2022/01/11 10:32:25;;;;;;;57.37;24.80;;;4.20;99.90;;;;;;4972757;28;20792;-66
2022/01/11 10:35:01;;;;;;;56.77;25.97;;;4.30;99.90;;;;;;4971603;28;20984;-66
2022/01/11 10:37:35;;;;;;;52.00;24.13;;;4.30;99.90;;;;;;4972486;28;20443;-66
2022/01/11 10:40:12;;;;;;;54.00;23.80;;;4.30;99.90;;;;;;4972867;28;20960;-66
2022/01/11 10:42:45;;;;;;;48.23;22.90;;;4.30;99.90;;;;;;4977822;28;20436;-66
2022/01/11 10:45:16;;;;;;;41.57;21.00;;;4.30;99.90;;;;;;4972438;28;20559;-66
2022/01/11 10:47:48;;;;;;;50.33;22.57;;;4.30;99.90;;;;;;4982463;28;20454;-66
2022/01/11 10:50:19;;;;;;;42.00;21.83;;;4.30;99.90;;;;;;4974199;28;20785;-67
2022/01/11 10:52:50;;;;;;;48.00;22.57;;;4.40;99.90;;;;;;4973103;28;20457;-67
2022/01/11 10:55:27;;;;;;;45.40;21.97;;;4.40;99.90;;;;;;4972687;28;20880;-66
2022/01/11 10:58:04;;;;;;;49.73;22.00;;;4.70;99.90;;;;;;4972388;28;20969;-66
2022/01/11 11:00:35;;;;;;;43.70;21.60;;;4.70;99.90;;;;;;4972506;28;20459;-66
2022/01/11 11:03:08;;;;;;;41.70;20.37;;;4.70;99.90;;;;;;4970378;28;20485;-66
2022/01/11 11:05:37;;;;;;;37.10;19.10;;;4.60;99.90;;;;;;4969916;28;20478;-66
2022/01/11 11:08:18;;;;;;;38.17;19.03;;;4.60;99.90;;;;;;4958323;28;20478;-66
2022/01/11 11:11:00;;;;;;;42.90;20.57;;;4.70;99.90;;;;;;4966138;28;20479;-66
2022/01/11 11:13:31;;;;;;;38.13;20.20;;;4.80;99.90;;;;;;4959953;28;20571;-66
2022/01/11 11:16:10;;;;;;;38.70;18.73;;;4.80;99.90;;;;;;4970330;28;20967;-66
2022/01/11 11:18:54;;;;;;;38.53;18.95;;;5.00;99.90;;;;;;2031240;28;10024574;-66
2022/01/11 11:21:28;;;;;;;34.60;17.87;;;5.00;99.90;;;;;;4282090;28;10001132;-66
2022/01/11 11:23:59;;;;;;;36.27;17.90;;;4.90;99.90;;;;;;4970773;28;20561;-66
2022/01/11 11:26:32;;;;;;;49.03;18.60;;;4.90;99.90;;;;;;4970477;28;20506;-66
2022/01/11 11:29:00;;;;;;;29.57;16.23;;;4.70;99.90;;;;;;4969060;28;20482;-66
2022/01/11 11:31:41;;;;;;;29.50;15.83;;;4.80;99.90;;;;;;4968873;28;20567;-66
2022/01/11 11:34:12;;;;;;;34.33;16.93;;;5.10;99.90;;;;;;4970706;28;20567;-66
2022/01/11 11:36:42;;;;;;;30.17;16.30;;;5.20;99.90;;;;;;4971017;28;20513;-66
2022/01/11 11:39:18;;;;;;;27.43;15.07;;;5.40;99.90;;;;;;4971232;28;20483;-66
2022/01/11 11:41:54;;;;;;;31.50;17.03;;;5.40;99.90;;;;;;4974591;28;20535;-66
2022/01/11 11:44:25;;;;;;;28.10;15.83;;;5.50;99.90;;;;;;4975087;28;20483;-66
2022/01/11 11:46:55;;;;;;;28.50;16.00;;;5.30;99.90;;;;;;4974229;28;20474;-66
2022/01/11 11:49:43;;;;;;;31.10;15.70;;;5.50;99.90;;;;;;4971979;28;21050;-66
2022/01/11 11:52:21;;;;;;;31.07;15.97;;;5.60;99.90;;;;;;4973396;28;20829;-66
2022/01/11 11:54:54;;;;;;;29.10;15.20;;;5.60;99.90;;;;;;4959070;28;20480;-66
2022/01/11 11:57:24;;;;;;;32.67;16.17;;;5.60;99.90;;;;;;4971388;28;20485;-66
2022/01/11 11:59:54;;;;;;;27.73;15.60;;;5.70;99.90;;;;;;4969484;28;21020;-66
2022/01/11 12:02:34;;;;;;;31.17;14.73;;;5.70;99.90;;;;;;4973791;28;20241;-66
2022/01/11 12:05:05;;;;;;;35.27;17.77;;;5.80;99.90;;;;;;4974260;28;20560;-66
2022/01/11 12:07:38;;;;;;;32.33;17.70;;;5.70;99.90;;;;;;4973962;28;20500;-66
2022/01/11 12:10:14;;;;;;;28.50;16.27;;;5.80;99.90;;;;;;4974426;28;20485;-66
2022/01/11 12:12:52;;;;;;;26.30;14.47;;;5.90;99.90;;;;;;4973556;28;20866;-66
2022/01/11 12:15:37;;;;;;;25.47;14.20;;;6.00;99.90;;;;;;4955087;28;20485;-66
2022/01/11 12:18:16;;;;;;;27.80;15.37;;;6.00;99.90;;;;;;4972905;28;20237;-67
2022/01/11 12:20:47;;;;;;;26.60;14.60;;;6.10;99.90;;;;;;4973814;28;20242;-66
2022/01/11 12:23:20;;;;;;;29.80;14.53;;;6.00;99.90;;;;;;4969373;28;20235;-66
2022/01/11 12:25:55;;;;;;;23.13;14.33;;;6.00;99.90;;;;;;4969245;28;20253;-66
2022/01/11 12:28:26;;;;;;;25.97;14.83;;;6.00;99.90;;;;;;4969728;28;21044;-66
2022/01/11 12:31:23;;;;;;;28.80;14.67;;;6.00;99.90;;;;;;4973397;28;20266;-66
2022/01/11 12:33:52;;;;;;;28.40;14.87;;;6.10;99.90;;;;;;4972742;28;20341;-66
2022/01/11 12:36:39;;;;;;;26.80;14.10;;;6.10;99.90;;;;;;4973584;28;20249;-66
2022/01/11 12:39:07;;;;;;;25.67;13.43;;;6.00;99.90;;;;;;4961288;28;20527;-66
2022/01/11 12:41:37;;;;;;;27.93;14.03;;;5.90;99.90;;;;;;4972451;28;20237;-66
2022/01/11 12:44:22;;;;;;;33.23;15.13;;;5.70;99.90;;;;;;4964170;28;20496;-66
2022/01/11 12:46:53;;;;;;;30.43;15.53;;;5.80;99.90;;;;;;4956178;28;21014;-66
2022/01/11 12:49:22;;;;;;;26.57;14.63;;;5.70;99.90;;;;;;4972402;28;20539;-66
2022/01/11 12:51:54;;;;;;;28.30;13.77;;;5.60;99.90;;;;;;4972338;28;20241;-66
2022/01/11 12:54:31;;;;;;;22.40;13.63;;;5.60;99.90;;;;;;4973395;28;20560;-66
2022/01/11 12:57:03;;;;;;;24.90;13.90;;;5.60;99.90;;;;;;4972924;28;20508;-66
2022/01/11 12:59:34;;;;;;;26.10;13.50;;;5.50;99.90;;;;;;4972997;28;20476;-66
2022/01/11 13:02:12;;;;;;;19.47;13.17;;;5.50;99.90;;;;;;4973186;28;20238;-66
2022/01/11 13:04:47;;;;;;;26.37;13.53;;;5.40;99.90;;;;;;4965550;28;20325;-66
2022/01/11 13:07:20;;;;;;;26.10;13.53;;;5.40;99.90;;;;;;4973885;28;20469;-66